METAR Data
IDs: Format: Raw Decoded Include TAF

Data at: 0018 UTC 30 May 2020

METAR for:KJYO (Leesburg/Executive A, VA, US)
Text:KJYO 300015Z AUTO 20005KT 10SM CLR 25/22 A2992 RMK AO2
Temperature: 25.0°C ( 77°F)
Dewpoint: 22.0°C ( 72°F) [RH = 83%]
Pressure (altimeter):29.92 inches Hg (1013.3 mb)
Winds:from the SSW (200 degrees) at 6 MPH (5 knots; 2.6 m/s)
Visibility:10 or more sm (16+ km)
Ceiling:at least 12,000 feet AGL
Clouds:sky clear below 12,000 feet AGL
QC Flag:automated observation with no human augmentation